Time;durP1;ratioP1;P1;durP2;ratioP2;P2;SDS_P1;SDS_P2;PMS_P1;PMS_P2;Temp;Humidity;BMP_temperature;BMP_pressure;BME280_temperature;BME280_humidity;BME280_pressure;Samples;Min_cycle;Max_cycle;Signal;HPM_P1;HPM_P2
2022/08/18 06:30:21;;;;;;;24.65;11.85;;;19.40;99.50;;;;;;5669280;23;20079;-60
2022/08/18 06:33:21;;;;;;;19.42;12.13;;;19.40;99.60;;;;;;4928409;29;20139;-61
2022/08/18 06:36:02;;;;;;;19.63;11.87;;;19.50;99.50;;;;;;4898514;29;20373;-61
2022/08/18 06:39:16;;;;;;;18.88;10.07;;;19.60;99.40;;;;;;4931614;29;20359;-59
2022/08/18 06:41:45;;;;;;;17.85;10.85;;;19.70;99.10;;;;;;4871512;29;20033;-61
2022/08/18 06:44:12;;;;;;;15.32;9.90;;;19.80;98.70;;;;;;4926841;29;20051;-61
2022/08/18 06:47:03;;;;;;;17.48;11.10;;;19.90;98.70;;;;;;4931871;29;20062;-61
2022/08/18 06:49:42;;;;;;;18.42;10.23;;;19.90;98.50;;;;;;4931966;29;20392;-59
2022/08/18 06:52:25;;;;;;;15.55;10.20;;;19.90;98.30;;;;;;4931444;29;20036;-59
2022/08/18 06:54:53;;;;;;;16.98;10.55;;;19.90;98.10;;;;;;4932692;29;20388;-62
2022/08/18 06:57:29;;;;;;;15.85;10.40;;;19.90;98.10;;;;;;4932487;29;20028;-58
2022/08/18 06:59:57;;;;;;;15.85;9.38;;;19.90;98.10;;;;;;4931109;29;20036;-61
2022/08/18 07:02:47;;;;;;;20.35;11.15;;;19.90;98.20;;;;;;4932083;29;20051;-67
2022/08/18 07:05:21;;;;;;;15.55;10.60;;;20.00;97.90;;;;;;4931874;29;20071;-62
2022/08/18 07:08:16;;;;;;;16.50;10.95;;;20.10;97.90;;;;;;4931457;29;20032;-60
2022/08/18 07:10:44;;;;;;;15.55;10.75;;;20.10;97.80;;;;;;4932154;29;20126;-68
2022/08/18 07:13:17;;;;;;;18.42;11.43;;;20.30;97.70;;;;;;4929702;29;20019;-62
2022/08/18 07:15:44;;;;;;;17.20;10.13;;;20.40;97.40;;;;;;4932270;29;20118;-69
2022/08/18 07:18:11;;;;;;;15.82;10.27;;;20.60;97.40;;;;;;4931678;29;20571;-71
2022/08/18 07:20:44;;;;;;;14.60;10.25;;;20.70;96.80;;;;;;4931272;29;20066;-66
2022/08/18 07:23:24;;;;;;;13.60;10.18;;;20.70;96.80;;;;;;4931480;29;20507;-64
2022/08/18 07:25:58;;;;;;;15.27;8.93;;;20.90;96.70;;;;;;4931709;29;20032;-70
2022/08/18 07:28:46;;;;;;;14.15;9.73;;;21.10;96.20;;;;;;4931704;29;20048;-65
2022/08/18 07:31:25;;;;;;;17.88;10.02;;;21.20;95.80;;;;;;4943740;29;20837;-69
2022/08/18 07:33:59;;;;;;;14.98;9.75;;;21.20;95.70;;;;;;4945984;29;20055;-67
2022/08/18 07:36:29;;;;;;;19.63;9.93;;;21.10;95.60;;;;;;4932336;29;20095;-72
2022/08/18 07:39:04;;;;;;;13.82;8.80;;;20.90;95.70;;;;;;4931315;29;20046;-65
2022/08/18 07:41:41;;;;;;;14.02;9.52;;;20.90;96.20;;;;;;4932290;29;20452;-62
2022/08/18 07:44:42;;;;;;;15.43;9.40;;;20.80;96.30;;;;;;4935514;29;20073;-60
2022/08/18 07:47:41;;;;;;;15.87;9.80;;;20.90;96.30;;;;;;4936553;29;20035;-65
2022/08/18 07:50:07;;;;;;;13.13;10.02;;;21.00;95.70;;;;;;4949929;29;20034;-66
2022/08/18 07:53:04;;;;;;;15.30;10.52;;;21.10;95.60;;;;;;4934537;29;20027;-59
2022/08/18 07:55:34;;;;;;;14.23;9.30;;;21.20;95.40;;;;;;4925948;29;20047;-62
2022/08/18 07:58:25;;;;;;;14.57;8.50;;;21.30;95.30;;;;;;4935565;29;20508;-59
2022/08/18 08:01:00;;;;;;;12.93;8.60;;;21.40;95.00;;;;;;4933325;29;20043;-59
2022/08/18 08:03:30;;;;;;;14.13;8.48;;;21.30;94.80;;;;;;4933804;29;20051;-60
2022/08/18 08:06:15;;;;;;;;;;;21.30;94.90;;;;;;4935808;29;20036;-60
2022/08/18 08:08:53;;;;;;;12.15;8.32;;;21.50;94.80;;;;;;4935563;29;19906;-60
2022/08/18 08:11:32;;;;;;;10.80;7.07;;;21.40;94.50;;;;;;4935247;29;20028;-62
2022/08/18 08:14:05;;;;;;;11.55;7.13;;;21.50;94.30;;;;;;4935461;29;20024;-61
2022/08/18 08:16:48;;;;;;;10.25;6.68;;;21.50;94.20;;;;;;4935426;29;20067;-61
2022/08/18 08:19:17;;;;;;;9.23;6.07;;;21.70;93.60;;;;;;4935863;29;20027;-59
2022/08/18 08:21:59;;;;;;;11.52;6.53;;;21.90;93.10;;;;;;4934396;29;20047;-61
2022/08/18 08:24:47;;;;;;;8.23;5.55;;;22.00;92.90;;;;;;4934921;29;20123;-61
2022/08/18 08:27:30;;;;;;;9.38;5.78;;;22.10;93.00;;;;;;4950516;29;20413;-59
2022/08/18 08:30:08;;;;;;;8.55;6.43;;;22.20;92.60;;;;;;4934683;29;20101;-59
2022/08/18 08:32:39;;;;;;;8.88;6.90;;;22.30;92.20;;;;;;4934209;29;20067;-68
2022/08/18 08:35:11;;;;;;;10.13;6.28;;;22.50;91.90;;;;;;4934678;29;20020;-60
2022/08/18 08:37:50;;;;;;;10.43;6.78;;;22.60;91.60;;;;;;4934814;29;20032;-60
2022/08/18 08:40:22;;;;;;;10.52;7.40;;;22.60;91.30;;;;;;4935387;29;20027;-70
2022/08/18 08:43:11;;;;;;;8.77;7.10;;;22.70;91.20;;;;;;4948709;29;20114;-60
2022/08/18 08:45:44;;;;;;;10.45;6.82;;;22.80;91.00;;;;;;4934370;29;20035;-60
2022/08/18 08:48:24;;;;;;;12.05;6.93;;;22.90;90.50;;;;;;4933977;29;20114;-61
2022/08/18 08:51:23;;;;;;;11.68;7.70;;;23.10;90.50;;;;;;4949073;29;20028;-61
2022/08/18 08:53:57;;;;;;;10.48;7.05;;;23.10;90.00;;;;;;4934177;29;20036;-60
2022/08/18 08:56:29;;;;;;;11.68;6.75;;;23.10;89.50;;;;;;4934429;29;20030;-60
2022/08/18 08:59:04;;;;;;;10.48;6.60;;;23.00;90.00;;;;;;4934244;29;20361;-60
2022/08/18 09:02:18;;;;;;;11.13;7.40;;;23.00;90.00;;;;;;4934090;29;20194;-62
2022/08/18 09:05:07;;;;;;;11.07;7.13;;;22.90;89.70;;;;;;4934697;29;20082;-62
2022/08/18 09:08:01;;;;;;;9.60;5.80;;;22.70;90.10;;;;;;4933524;29;20044;-61
2022/08/18 09:11:00;;;;;;;8.63;5.88;;;22.60;90.20;;;;;;4933075;29;20442;-61
2022/08/18 09:13:40;;;;;;;11.88;6.50;;;22.70;90.10;;;;;;4948577;29;20115;-61
2022/08/18 09:16:14;;;;;;;7.28;5.68;;;22.90;89.30;;;;;;4934788;29;20032;-66
2022/08/18 09:18:59;;;;;;;7.05;4.75;;;22.90;89.40;;;;;;4934813;29;20036;-60
2022/08/18 09:21:40;;;;;;;6.47;4.57;;;22.90;87.90;;;;;;4933743;29;20083;-66
2022/08/18 09:24:23;;;;;;;9.27;4.70;;;22.80;87.50;;;;;;4934007;29;20506;-61
2022/08/18 09:27:02;;;;;;;5.50;3.80;;;22.80;87.20;;;;;;4933860;29;20088;-61
2022/08/18 09:29:37;;;;;;;8.38;4.05;;;22.90;87.60;;;;;;4933219;29;20088;-61
2022/08/18 09:32:17;;;;;;;6.00;4.22;;;23.00;87.70;;;;;;4924575;29;20063;-60
2022/08/18 09:34:43;;;;;;;7.93;4.28;;;23.00;87.60;;;;;;4932884;29;20063;-60
2022/08/18 09:37:32;;;;;;;6.43;4.53;;;23.10;87.50;;;;;;4933370;29;20098;-61
2022/08/18 09:43:26;;;;;;;8.10;5.10;;;23.50;86.70;;;;;;4930484;29;20119;-60
2022/08/18 09:45:58;;;;;;;9.70;5.25;;;23.60;85.90;;;;;;4933454;29;20082;-61
2022/08/18 09:48:34;;;;;;;8.25;5.25;;;23.80;85.00;;;;;;4932982;29;20035;-64
2022/08/18 09:51:15;;;;;;;6.68;4.20;;;23.80;83.90;;;;;;4932814;29;20038;-68
2022/08/18 09:53:53;;;;;;;6.90;4.25;;;23.70;83.90;;;;;;4933249;29;20031;-63
2022/08/18 09:56:47;;;;;;;10.95;4.97;;;23.60;84.10;;;;;;4932949;29;20035;-64
2022/08/18 09:59:32;;;;;;;8.52;5.18;;;23.40;84.20;;;;;;4933482;29;20023;-68
2022/08/18 10:02:02;;;;;;;8.02;4.68;;;23.40;85.20;;;;;;4930147;29;20043;-61
2022/08/18 10:04:28;;;;;;;6.07;4.23;;;23.30;85.30;;;;;;4932146;29;20052;-67
2022/08/18 10:06:54;;;;;;;7.15;4.68;;;23.50;85.50;;;;;;4933216;29;20267;-66
2022/08/18 10:09:28;;;;;;;6.68;4.70;;;23.60;84.90;;;;;;4932859;29;20075;-66
2022/08/18 10:12:20;;;;;;;7.90;4.30;;;23.70;83.90;;;;;;4931329;29;20127;-61
2022/08/18 10:15:08;;;;;;;7.82;4.35;;;24.00;82.00;;;;;;4932550;29;20201;-63
2022/08/18 10:17:45;;;;;;;7.13;4.60;;;24.20;82.10;;;;;;4931603;29;20387;-63
2022/08/18 10:20:58;;;;;;;11.20;4.53;;;24.40;81.50;;;;;;4933112;29;20063;-65
2022/08/18 10:23:45;;;;;;;5.85;3.40;;;24.40;80.80;;;;;;4923781;29;20047;-61
2022/08/18 10:26:28;;;;;;;4.90;3.50;;;24.30;80.30;;;;;;4932557;29;20460;-64
2022/08/18 10:29:33;;;;;;;6.28;3.80;;;24.30;79.80;;;;;;4932143;29;20114;-61
2022/08/18 10:31:58;;;;;;;6.43;3.20;;;24.30;79.10;;;;;;4931411;29;20508;-62
2022/08/18 10:34:40;;;;;;;5.80;3.75;;;24.40;78.30;;;;;;4932437;29;20035;-62
2022/08/18 10:37:14;;;;;;;4.90;3.15;;;24.40;76.60;;;;;;4931744;29;20027;-63
2022/08/18 10:39:41;;;;;;;4.75;2.80;;;24.50;76.70;;;;;;4932055;29;20498;-67
2022/08/18 10:42:18;;;;;;;4.60;3.08;;;24.60;75.60;;;;;;4931958;29;20030;-61
2022/08/18 10:44:46;;;;;;;5.43;2.60;;;24.70;74.00;;;;;;4926171;29;20471;-60
2022/08/18 10:47:23;;;;;;;3.80;2.72;;;24.80;74.60;;;;;;4931673;29;20532;-60
2022/08/18 10:49:50;;;;;;;4.38;2.72;;;24.90;74.80;;;;;;4931751;29;20120;-61
2022/08/18 10:52:48;;;;;;;5.13;2.70;;;25.10;74.60;;;;;;4931516;29;20139;-68
2022/08/18 10:55:31;;;;;;;4.47;2.92;;;25.20;73.80;;;;;;4913748;29;20130;-61
2022/08/18 10:58:17;;;;;;;5.32;3.22;;;25.40;74.40;;;;;;4931822;29;20547;-68
2022/08/18 11:01:05;;;;;;;4.85;3.03;;;25.40;74.50;;;;;;4932462;29;20496;-67
2022/08/18 11:03:39;;;;;;;4.65;3.53;;;25.40;75.10;;;;;;4932502;29;20082;-71
2022/08/18 11:06:13;;;;;;;3.85;2.63;;;25.30;74.90;;;;;;4931781;29;20111;-68
2022/08/18 11:08:45;;;;;;;4.35;2.63;;;25.30;74.80;;;;;;4947411;29;20031;-69
2022/08/18 11:11:12;;;;;;;5.85;3.03;;;25.20;73.40;;;;;;4932399;29;20046;-70
2022/08/18 11:14:00;;;;;;;4.43;2.80;;;25.20;73.10;;;;;;4931939;29;20091;-59
2022/08/18 11:17:01;;;;;;;4.75;2.88;;;25.20;72.80;;;;;;4932227;29;20495;-59
2022/08/18 11:19:27;;;;;;;6.43;3.00;;;25.20;71.80;;;;;;4932281;29;20418;-60
2022/08/18 11:21:53;;;;;;;4.15;2.50;;;25.30;71.70;;;;;;4931726;29;20023;-59
2022/08/18 11:24:25;;;;;;;4.95;2.60;;;25.50;71.70;;;;;;4932267;29;20048;-60
2022/08/18 11:27:01;;;;;;;4.55;3.17;;;25.80;71.70;;;;;;4930110;29;20059;-59
2022/08/18 11:29:37;;;;;;;4.00;2.70;;;26.00;69.20;;;;;;4913137;29;20028;-59
2022/08/18 11:32:07;;;;;;;5.45;3.60;;;26.10;69.20;;;;;;4911140;29;20139;-59
2022/08/18 11:34:44;;;;;;;3.65;2.30;;;26.30;67.90;;;;;;4913206;29;20031;-59
2022/08/18 11:37:20;;;;;;;4.80;2.70;;;26.40;68.00;;;;;;4913277;29;20109;-59
2022/08/18 11:39:51;;;;;;;6.47;3.55;;;26.60;66.40;;;;;;4913267;29;20028;-59
2022/08/18 11:42:19;;;;;;;8.50;3.70;;;26.60;68.50;;;;;;4912344;29;20032;-59
2022/08/18 11:44:45;;;;;;;7.57;4.38;;;26.60;70.60;;;;;;4916552;29;20114;-59
2022/08/18 11:47:17;;;;;;;6.30;4.22;;;26.70;70.50;;;;;;4930929;29;20127;-59
2022/08/18 11:50:11;;;;;;;6.95;3.58;;;26.70;70.50;;;;;;4931954;29;20387;-60
2022/08/18 11:52:52;;;;;;;5.72;3.67;;;26.70;70.80;;;;;;4932062;29;20024;-59
2022/08/18 11:55:20;;;;;;;;;;;26.70;70.20;;;;;;4932490;29;20083;-59
2022/08/18 11:57:53;;;;;;;6.22;4.10;;;26.60;70.50;;;;;;4931678;29;19907;-58
2022/08/18 12:00:38;;;;;;;7.43;3.45;;;26.60;70.70;;;;;;4931895;29;20055;-59
2022/08/18 12:03:39;;;;;;;5.40;3.88;;;26.60;70.70;;;;;;4930138;29;20039;-61
2022/08/18 12:06:18;;;;;;;5.20;3.63;;;26.50;70.90;;;;;;4935612;29;20031;-61
2022/08/18 12:09:13;;;;;;;5.32;3.22;;;26.40;70.60;;;;;;4949796;29;20371;-60
2022/08/18 12:11:53;;;;;;;5.43;3.63;;;26.40;70.80;;;;;;4947882;29;20035;-61
2022/08/18 12:14:22;;;;;;;5.80;3.30;;;26.30;70.70;;;;;;4950765;29;20028;-61
2022/08/18 12:16:48;;;;;;;7.32;3.75;;;26.30;70.10;;;;;;4933684;29;20480;-62
2022/08/18 12:19:15;;;;;;;4.75;3.22;;;26.20;68.60;;;;;;4931565;29;20027;-64
2022/08/18 12:21:49;;;;;;;6.25;4.03;;;26.20;69.10;;;;;;4931412;29;20063;-60
2022/08/18 12:24:24;;;;;;;5.00;2.90;;;26.20;69.60;;;;;;4931569;29;20034;-60
2022/08/18 12:26:51;;;;;;;6.43;3.42;;;26.20;69.80;;;;;;4931856;29;20070;-60
2022/08/18 12:29:17;;;;;;;6.00;3.40;;;26.30;70.10;;;;;;4934298;29;20035;-60
2022/08/18 12:31:49;;;;;;;5.80;3.70;;;26.20;69.60;;;;;;4934169;29;20596;-62
2022/08/18 12:34:16;;;;;;;4.13;3.00;;;26.20;68.90;;;;;;4952451;29;20058;-65
2022/08/18 12:36:42;;;;;;;5.22;2.67;;;26.20;68.40;;;;;;4953771;29;20102;-62
2022/08/18 12:39:08;;;;;;;4.53;3.20;;;26.20;68.50;;;;;;4953804;29;20110;-65
2022/08/18 12:41:33;;;;;;;4.88;2.80;;;26.20;67.80;;;;;;4945974;29;20019;-59
2022/08/18 12:43:59;;;;;;;4.55;2.80;;;26.20;67.60;;;;;;4933485;29;20393;-63
2022/08/18 12:46:25;;;;;;;4.88;2.78;;;26.20;67.60;;;;;;4964334;28;20440;-63
2022/08/18 12:48:51;;;;;;;4.45;2.70;;;26.20;67.70;;;;;;4934328;29;20052;-61
2022/08/18 12:51:17;;;;;;;5.20;3.28;;;26.20;67.80;;;;;;4932986;29;20028;-60
2022/08/18 12:53:43;;;;;;;5.38;2.97;;;26.20;67.60;;;;;;4934891;29;20380;-61
2022/08/18 12:56:21;;;;;;;5.18;2.78;;;26.20;67.20;;;;;;4935141;29;20036;-70
2022/08/18 12:58:48;;;;;;;3.50;2.63;;;26.20;67.80;;;;;;4934085;29;20039;-60
2022/08/18 13:01:15;;;;;;;3.38;2.65;;;26.30;68.10;;;;;;4933386;29;20032;-60
2022/08/18 13:03:40;;;;;;;5.95;2.70;;;26.20;68.10;;;;;;4934889;29;20032;-60
2022/08/18 13:06:06;;;;;;;3.88;2.38;;;26.20;68.10;;;;;;4934282;29;20035;-60
2022/08/18 13:08:32;;;;;;;3.78;2.30;;;26.10;68.80;;;;;;4915953;29;20108;-61
2022/08/18 13:10:59;;;;;;;4.93;2.50;;;25.90;69.90;;;;;;4918464;29;20084;-61
2022/08/18 13:13:25;;;;;;;3.67;2.30;;;25.80;70.80;;;;;;4952533;29;20103;-67
2022/08/18 13:15:53;;;;;;;5.72;2.85;;;25.70;71.70;;;;;;4951935;29;20163;-60
2022/08/18 13:18:18;;;;;;;4.63;2.60;;;25.60;71.60;;;;;;4940136;29;20028;-61
2022/08/18 13:20:44;;;;;;;4.90;2.60;;;25.60;72.30;;;;;;4933997;29;20027;-60
2022/08/18 13:23:09;;;;;;;5.55;2.65;;;25.60;72.90;;;;;;4934437;29;20172;-60
2022/08/18 13:25:35;;;;;;;4.85;2.60;;;25.70;72.70;;;;;;4931949;29;20066;-60
2022/08/18 13:28:01;;;;;;;3.97;2.53;;;25.70;72.70;;;;;;4934195;29;20031;-65
2022/08/18 13:30:26;;;;;;;3.10;2.17;;;25.70;72.30;;;;;;4935426;29;20031;-61
2022/08/18 13:32:52;;;;;;;6.28;2.63;;;25.70;72.50;;;;;;4931898;29;20047;-61
2022/08/18 13:35:18;;;;;;;8.00;3.03;;;25.80;72.50;;;;;;4933643;29;20034;-60
2022/08/18 13:37:44;;;;;;;4.80;2.70;;;25.80;72.20;;;;;;4933056;29;20017;-61
2022/08/18 13:40:12;;;;;;;5.53;2.80;;;25.80;72.00;;;;;;4944269;29;20468;-61
2022/08/18 13:42:47;;;;;;;3.42;2.47;;;25.90;72.60;;;;;;4951070;29;20498;-61
2022/08/18 13:45:19;;;;;;;4.40;2.60;;;26.00;72.50;;;;;;4935644;29;20551;-61
2022/08/18 13:47:46;;;;;;;5.00;2.70;;;26.10;72.30;;;;;;4932483;29;20059;-61
2022/08/18 13:50:12;;;;;;;4.70;2.60;;;26.10;71.70;;;;;;4948271;28;20480;-61
2022/08/18 13:52:39;;;;;;;4.97;2.70;;;26.00;71.80;;;;;;4932960;29;20035;-61
2022/08/18 13:55:09;;;;;;;5.47;3.00;;;26.00;71.70;;;;;;4935610;29;20074;-61
2022/08/18 13:57:37;;;;;;;4.55;2.58;;;26.00;71.70;;;;;;4951179;28;20336;-61
2022/08/18 14:00:07;;;;;;;4.13;2.80;;;26.00;71.70;;;;;;4932986;29;20095;-60
2022/08/18 14:02:33;;;;;;;4.28;2.80;;;26.00;71.70;;;;;;4931960;29;20042;-61
2022/08/18 14:04:58;;;;;;;3.55;2.60;;;26.00;71.60;;;;;;4933577;29;20039;-61
2022/08/18 14:07:25;;;;;;;3.88;2.88;;;25.90;71.50;;;;;;4933076;29;20032;-61
2022/08/18 14:09:50;;;;;;;3.78;2.70;;;25.90;71.40;;;;;;4932282;29;20024;-60
2022/08/18 14:12:20;;;;;;;4.63;2.72;;;25.80;71.30;;;;;;4932292;29;20023;-61
2022/08/18 14:14:46;;;;;;;4.40;3.07;;;25.80;71.40;;;;;;4932625;29;20055;-70
2022/08/18 14:17:11;;;;;;;4.90;2.60;;;25.90;71.40;;;;;;4933515;29;20050;-62
2022/08/18 14:27:50;;;;;;;4.43;2.45;;;26.80;69.90;;;;;;4932752;29;20043;-60
2022/08/18 14:30:17;;;;;;;5.85;2.63;;;27.00;69.30;;;;;;4930874;29;20028;-61
2022/08/18 14:32:44;;;;;;;3.83;2.35;;;27.10;68.00;;;;;;4929309;29;20048;-59
2022/08/18 14:35:12;;;;;;;4.88;2.72;;;27.20;67.60;;;;;;4932222;29;20028;-60
2022/08/18 14:37:39;;;;;;;4.25;2.58;;;27.20;67.30;;;;;;4931788;29;20111;-60
2022/08/18 14:40:06;;;;;;;3.75;2.60;;;27.30;67.60;;;;;;4931514;29;20034;-61
2022/08/18 14:42:32;;;;;;;4.25;2.63;;;27.30;66.50;;;;;;4931958;29;20058;-60
2022/08/18 14:44:58;;;;;;;4.82;2.60;;;27.40;66.60;;;;;;4931645;29;20046;-59
2022/08/18 14:47:28;;;;;;;3.65;2.30;;;27.30;66.10;;;;;;4932942;29;20126;-59
2022/08/18 14:49:56;;;;;;;4.43;2.40;;;27.40;65.60;;;;;;4930776;29;20475;-62
2022/08/18 14:52:22;;;;;;;4.63;2.70;;;27.50;65.80;;;;;;4931825;29;20060;-65
2022/08/18 14:54:48;;;;;;;5.07;2.63;;;27.50;65.20;;;;;;4932416;29;20043;-59
2022/08/18 14:57:14;;;;;;;3.78;2.35;;;27.60;65.30;;;;;;4931841;29;20019;-62
2022/08/18 14:59:40;;;;;;;3.85;2.60;;;27.70;65.50;;;;;;4932676;29;20046;-59
2022/08/18 15:02:09;;;;;;;4.03;2.75;;;27.90;64.90;;;;;;4929424;29;20476;-59
2022/08/18 15:04:36;;;;;;;3.95;2.58;;;28.10;64.40;;;;;;4947245;28;20079;-60
2022/08/18 15:07:02;;;;;;;4.25;2.33;;;28.50;63.90;;;;;;4932237;29;20392;-64
2022/08/18 15:09:31;;;;;;;5.38;2.40;;;29.20;63.30;;;;;;4931865;29;20027;-69
2022/08/18 15:11:58;;;;;;;5.57;2.83;;;29.90;61.30;;;;;;4931463;29;20028;-59
2022/08/18 15:14:30;;;;;;;3.83;2.20;;;30.30;59.70;;;;;;4931420;29;20030;-59
2022/08/18 15:17:00;;;;;;;2.65;2.10;;;30.40;59.00;;;;;;4931755;29;20486;-59
2022/08/18 15:19:27;;;;;;;7.25;2.40;;;30.50;57.50;;;;;;4931769;29;20028;-61
2022/08/18 15:27:31;;;;;;;3.47;2.00;;;29.20;59.00;;;;;;4932799;29;20031;-59
2022/08/18 15:29:57;;;;;;;3.85;2.28;;;29.00;59.90;;;;;;4931703;29;20023;-59
2022/08/18 15:32:23;;;;;;;2.88;1.90;;;28.90;60.80;;;;;;4930340;29;20044;-65
2022/08/18 15:34:49;;;;;;;2.95;2.00;;;29.20;60.80;;;;;;4931696;29;20896;-60
2022/08/18 15:37:15;;;;;;;3.58;2.15;;;29.70;59.30;;;;;;4931987;29;20038;-59
2022/08/18 15:39:41;;;;;;;3.35;1.83;;;30.00;58.30;;;;;;4931231;29;20369;-59
2022/08/18 15:42:10;;;;;;;2.53;2.10;;;30.20;57.80;;;;;;4932214;29;20027;-58
2022/08/18 15:44:36;;;;;;;4.47;2.13;;;30.40;56.90;;;;;;4931164;29;20099;-63
2022/08/18 15:47:03;;;;;;;3.55;2.20;;;30.70;57.50;;;;;;4931015;29;20106;-59
2022/08/18 15:49:30;;;;;;;3.88;2.05;;;31.10;56.00;;;;;;4931966;29;20035;-59
2022/08/18 15:51:56;;;;;;;3.15;1.90;;;31.20;55.10;;;;;;4930116;29;20049;-59
2022/08/18 15:54:21;;;;;;;4.22;1.77;;;31.30;54.20;;;;;;4930922;29;20488;-58
2022/08/18 15:56:47;;;;;;;2.72;1.63;;;31.30;54.40;;;;;;4930699;29;20020;-61
2022/08/18 15:59:13;;;;;;;2.90;1.65;;;31.20;54.40;;;;;;4931755;29;20031;-58
2022/08/18 16:01:38;;;;;;;2.20;1.70;;;31.20;54.10;;;;;;4931303;29;20032;-59
2022/08/18 16:04:06;;;;;;;3.25;2.00;;;31.20;54.20;;;;;;4933504;29;20441;-59
2022/08/18 16:06:33;;;;;;;2.63;1.90;;;31.40;53.00;;;;;;4935669;29;20122;-60
2022/08/18 16:09:00;;;;;;;1.90;1.60;;;31.40;53.90;;;;;;4934760;29;20012;-60
2022/08/18 16:11:27;;;;;;;2.65;1.90;;;31.80;53.60;;;;;;4935739;29;20043;-60
2022/08/18 16:13:52;;;;;;;2.50;1.77;;;32.20;52.30;;;;;;4934493;29;20024;-61
2022/08/18 16:16:22;;;;;;;3.00;1.85;;;32.40;51.60;;;;;;4934086;29;20421;-60
2022/08/18 16:18:48;;;;;;;1.93;1.73;;;32.60;50.30;;;;;;4934628;29;20035;-60
2022/08/18 16:21:18;;;;;;;3.65;1.80;;;32.10;50.70;;;;;;4934580;29;20680;-60
2022/08/18 16:23:47;;;;;;;3.10;1.80;;;31.60;51.50;;;;;;4934198;29;20028;-60
2022/08/18 16:26:15;;;;;;;2.42;1.70;;;31.10;52.90;;;;;;4935205;29;20038;-66
2022/08/18 16:28:42;;;;;;;3.70;1.80;;;31.20;52.90;;;;;;4934705;29;20024;-60
2022/08/18 16:31:08;;;;;;;3.78;1.80;;;31.20;52.40;;;;;;4935094;29;20472;-60
2022/08/18 16:33:34;;;;;;;3.35;2.00;;;30.80;52.80;;;;;;4935640;29;20035;-60
2022/08/18 16:36:05;;;;;;;2.75;1.80;;;30.50;53.60;;;;;;4934844;29;20024;-64
2022/08/18 16:38:32;;;;;;;3.30;1.88;;;30.20;54.40;;;;;;4935006;29;20023;-60
2022/08/18 16:41:05;;;;;;;2.42;1.70;;;30.00;55.30;;;;;;4934323;29;20104;-60
2022/08/18 16:43:32;;;;;;;3.17;1.92;;;29.50;56.50;;;;;;4934811;29;20401;-60
2022/08/18 16:45:57;;;;;;;3.28;1.77;;;29.00;57.50;;;;;;4933222;29;20063;-60
2022/08/18 16:48:23;;;;;;;2.55;1.67;;;28.60;58.30;;;;;;4934845;29;20015;-60
2022/08/18 16:50:50;;;;;;;2.95;1.85;;;28.30;59.10;;;;;;4934638;29;20031;-60
2022/08/18 16:53:17;;;;;;;4.43;1.90;;;28.00;59.80;;;;;;4935532;29;20019;-60
2022/08/18 16:55:43;;;;;;;3.28;1.88;;;27.80;60.60;;;;;;4934275;29;20078;-60
2022/08/18 17:06:27;;;;;;;4.57;2.20;;;28.20;61.10;;;;;;4935781;29;20074;-60
2022/08/18 17:08:54;;;;;;;2.67;2.20;;;28.60;60.40;;;;;;4934826;29;20656;-60
2022/08/18 17:11:20;;;;;;;3.35;2.22;;;28.80;59.60;;;;;;4934678;29;20063;-60
2022/08/18 17:13:47;;;;;;;2.60;1.95;;;28.70;59.30;;;;;;4934642;29;20058;-60
2022/08/18 17:16:15;;;;;;;2.60;2.00;;;28.60;59.20;;;;;;4935656;29;20350;-63
2022/08/18 17:18:41;;;;;;;3.72;1.92;;;28.50;59.10;;;;;;4934280;29;20019;-60
2022/08/18 17:21:11;;;;;;;3.20;1.92;;;28.50;59.60;;;;;;4935061;29;20540;-60
2022/08/18 17:23:37;;;;;;;3.47;2.07;;;28.50;59.30;;;;;;4935793;29;20023;-60
2022/08/18 17:26:04;;;;;;;5.90;2.08;;;28.30;59.50;;;;;;4934117;29;20496;-60
2022/08/18 17:28:42;;;;;;;2.17;1.60;;;28.20;59.60;;;;;;4934597;29;20023;-71
2022/08/18 17:31:10;;;;;;;3.63;2.38;;;28.00;59.90;;;;;;4934015;29;20036;-60
2022/08/18 17:33:39;;;;;;;3.13;1.90;;;27.80;60.60;;;;;;4933281;29;20111;-66
2022/08/18 17:36:11;;;;;;;2.53;1.70;;;27.70;61.10;;;;;;4934550;29;20023;-61
2022/08/18 17:38:57;;;;;;;3.35;1.95;;;27.60;61.10;;;;;;4933962;29;20531;-65
2022/08/18 17:41:24;;;;;;;4.40;2.22;;;27.60;61.20;;;;;;4934909;29;20385;-61
2022/08/18 17:43:51;;;;;;;4.68;2.00;;;27.40;61.20;;;;;;4948472;29;20030;-59
2022/08/18 17:46:28;;;;;;;3.15;2.03;;;27.30;61.70;;;;;;4954220;29;20522;-61
2022/08/18 17:49:02;;;;;;;3.40;2.03;;;27.20;63.00;;;;;;4952895;29;20471;-61
2022/08/18 17:51:38;;;;;;;3.08;2.17;;;27.00;63.30;;;;;;4952451;29;20114;-67
2022/08/18 17:54:26;;;;;;;3.92;2.42;;;26.90;63.70;;;;;;4953234;29;20065;-67
2022/08/18 17:57:07;;;;;;;2.70;2.03;;;26.70;64.20;;;;;;4953310;28;20074;-62
2022/08/18 17:59:49;;;;;;;2.30;1.65;;;26.60;64.60;;;;;;4952938;29;20065;-61
2022/08/18 18:02:22;;;;;;;2.38;1.80;;;26.50;64.80;;;;;;4953713;29;20030;-67
2022/08/18 18:04:48;;;;;;;4.18;1.95;;;26.50;65.20;;;;;;4953322;29;20038;-61
2022/08/18 18:07:43;;;;;;;3.63;1.85;;;26.40;65.50;;;;;;4953029;29;20033;-60
2022/08/18 18:10:21;;;;;;;3.22;1.83;;;26.30;65.80;;;;;;4952698;29;20027;-60
2022/08/18 18:13:08;;;;;;;3.50;1.67;;;26.30;66.20;;;;;;4951288;29;20030;-61
2022/08/18 18:15:38;;;;;;;2.78;1.75;;;26.20;66.50;;;;;;4952906;29;20027;-61
2022/08/18 18:18:20;;;;;;;4.35;2.17;;;26.20;66.80;;;;;;4935939;29;20028;-63
2022/08/18 18:21:01;;;;;;;3.42;2.20;;;26.10;67.20;;;;;;4931285;29;20027;-61
2022/08/18 18:23:30;;;;;;;3.03;2.13;;;26.00;67.80;;;;;;4953588;29;20023;-61
2022/08/18 18:25:56;;;;;;;3.42;2.00;;;25.90;68.60;;;;;;4943705;28;20042;-62
2022/08/18 18:28:32;;;;;;;2.80;1.98;;;25.80;68.90;;;;;;4933478;29;20067;-61
2022/08/18 18:30:59;;;;;;;3.17;2.25;;;25.60;69.10;;;;;;4932156;29;20396;-61
2022/08/18 18:33:28;;;;;;;3.00;1.90;;;25.60;69.70;;;;;;4933190;29;20055;-62
2022/08/18 18:35:56;;;;;;;3.10;2.00;;;25.50;69.90;;;;;;4932271;29;20025;-61
2022/08/18 18:38:25;;;;;;;3.88;2.00;;;25.40;70.30;;;;;;4948183;29;20019;-61
2022/08/18 18:40:58;;;;;;;3.83;2.50;;;25.30;70.70;;;;;;4932700;29;20059;-62
2022/08/18 18:43:29;;;;;;;3.85;2.63;;;25.30;71.30;;;;;;4932680;29;20110;-61
2022/08/18 18:46:22;;;;;;;3.05;2.35;;;25.20;71.90;;;;;;4933005;29;20031;-62
2022/08/18 18:49:15;;;;;;;3.13;2.10;;;25.10;72.30;;;;;;4932875;29;20035;-65
2022/08/18 18:52:06;;;;;;;2.88;1.85;;;25.00;72.60;;;;;;4932804;29;20086;-62
2022/08/18 18:54:57;;;;;;;3.22;2.10;;;24.80;72.90;;;;;;4933766;29;20362;-63
2022/08/18 18:58:02;;;;;;;5.80;3.03;;;24.70;73.30;;;;;;4932969;29;20055;-63
2022/08/18 19:00:52;;;;;;;4.13;2.90;;;24.50;74.40;;;;;;4932911;29;20078;-63
2022/08/18 19:03:45;;;;;;;3.78;2.53;;;24.30;75.60;;;;;;4932391;29;20066;-62
2022/08/18 19:06:41;;;;;;;6.75;3.10;;;24.10;76.20;;;;;;4947743;29;20039;-62
2022/08/18 19:09:20;;;;;;;5.22;2.90;;;23.90;76.90;;;;;;4933151;29;20103;-68
2022/08/18 19:12:16;;;;;;;3.70;2.70;;;23.80;77.50;;;;;;4931764;29;20449;-69
2022/08/18 19:14:54;;;;;;;6.03;3.22;;;23.70;78.20;;;;;;4932393;29;20074;-64
2022/08/18 19:17:40;;;;;;;4.80;2.88;;;23.60;79.20;;;;;;4933010;29;20425;-61
2022/08/18 19:20:13;;;;;;;4.47;3.25;;;23.40;79.90;;;;;;4933046;29;20035;-66
2022/08/18 19:22:43;;;;;;;5.28;2.95;;;23.30;80.10;;;;;;4932263;29;20485;-70
2022/08/18 19:25:16;;;;;;;6.00;3.20;;;23.20;80.90;;;;;;4944548;29;20031;-62
2022/08/18 19:27:49;;;;;;;3.80;2.83;;;23.20;81.30;;;;;;4914041;29;20056;-65
2022/08/18 19:30:17;;;;;;;4.68;3.05;;;23.10;81.40;;;;;;4914128;29;20024;-61
2022/08/18 19:32:53;;;;;;;4.20;3.10;;;23.00;81.80;;;;;;4912752;29;20052;-65
2022/08/18 19:35:37;;;;;;;4.15;3.13;;;22.90;82.50;;;;;;4914509;29;20028;-66
2022/08/18 19:38:24;;;;;;;7.82;2.83;;;22.70;83.40;;;;;;4919778;29;20028;-61
2022/08/18 19:41:04;;;;;;;3.70;2.63;;;22.60;83.80;;;;;;4920272;29;20043;-60
2022/08/18 19:43:50;;;;;;;5.00;3.07;;;22.50;84.20;;;;;;4920249;29;20024;-63
2022/08/18 19:46:38;;;;;;;4.90;3.10;;;22.40;84.90;;;;;;4918331;29;20392;-61
2022/08/18 19:49:13;;;;;;;6.55;3.67;;;22.20;85.40;;;;;;4920107;29;20099;-61
2022/08/18 19:51:40;;;;;;;4.78;3.35;;;22.10;86.40;;;;;;4920313;29;20457;-61
2022/08/18 19:54:34;;;;;;;5.50;3.30;;;22.00;87.00;;;;;;4934129;29;20020;-60
2022/08/18 19:57:25;;;;;;;4.75;3.60;;;21.90;87.60;;;;;;4920215;29;20042;-62
2022/08/18 20:00:11;;;;;;;;;;;21.80;88.30;;;;;;4919634;29;20107;-62
2022/08/18 20:02:45;;;;;;;6.35;3.58;;;21.80;88.70;;;;;;4920254;29;20339;-62
2022/08/18 20:05:31;;;;;;;4.90;3.22;;;21.70;89.10;;;;;;4919540;29;20081;-62
2022/08/18 20:08:24;;;;;;;5.20;3.83;;;21.60;89.50;;;;;;4927078;29;20051;-60
2022/08/18 20:11:10;;;;;;;5.88;3.75;;;21.60;90.00;;;;;;4939387;29;20028;-61
2022/08/18 20:13:39;;;;;;;5.90;4.00;;;21.60;90.20;;;;;;4938723;29;20564;-65
2022/08/18 20:16:13;;;;;;;5.55;3.75;;;21.50;90.50;;;;;;4938456;29;20035;-61
2022/08/18 20:18:47;;;;;;;5.50;4.20;;;21.40;90.70;;;;;;4939641;29;20024;-62